sensor_id;sensor_type;location;lat;lon;timestamp;pressure;altitude;pressure_sealevel;temperature;humidity
11049;BME280;5577;42.706;23.160;2022-11-15T00:01:52;94754.25;;;2.58;100.00
11049;BME280;5577;42.706;23.160;2022-11-15T00:04:36;94643.38;;;1.85;100.00
11049;BME280;5577;42.706;23.160;2022-11-15T00:07:20;94753.97;;;2.59;100.00
11049;BME280;5577;42.706;23.160;2022-11-15T00:10:05;94746.06;;;2.64;100.00
11049;BME280;5577;42.706;23.160;2022-11-15T00:12:49;94751.88;;;2.61;100.00
11049;BME280;5577;42.706;23.160;2022-11-15T00:15:40;94752.41;;;2.58;100.00
11049;BME280;5577;42.706;23.160;2022-11-15T00:18:24;94746.19;;;2.54;100.00
11049;BME280;5577;42.706;23.160;2022-11-15T00:21:13;94749.25;;;2.61;100.00
11049;BME280;5577;42.706;23.160;2022-11-15T00:23:58;94745.66;;;2.57;100.00
11049;BME280;5577;42.706;23.160;2022-11-15T00:26:42;94749.31;;;2.56;100.00
11049;BME280;5577;42.706;23.160;2022-11-15T00:29:26;94749.31;;;2.56;100.00
11049;BME280;5577;42.706;23.160;2022-11-15T00:32:10;94777.63;;;2.49;100.00
11049;BME280;5577;42.706;23.160;2022-11-15T00:34:54;94753.88;;;2.46;100.00
11049;BME280;5577;42.706;23.160;2022-11-15T00:37:38;94756.22;;;2.47;100.00
11049;BME280;5577;42.706;23.160;2022-11-15T00:40:22;94741.34;;;2.48;100.00
11049;BME280;5577;42.706;23.160;2022-11-15T00:43:06;94750.72;;;2.49;100.00
11049;BME280;5577;42.706;23.160;2022-11-15T00:45:50;94750.91;;;2.52;100.00
11049;BME280;5577;42.706;23.160;2022-11-15T00:48:34;94746.72;;;2.56;100.00
11049;BME280;5577;42.706;23.160;2022-11-15T00:51:18;94746.41;;;2.58;100.00
11049;BME280;5577;42.706;23.160;2022-11-15T00:54:02;94742.22;;;2.38;100.00
11049;BME280;5577;42.706;23.160;2022-11-15T00:56:47;94741.94;;;2.40;100.00
11049;BME280;5577;42.706;23.160;2022-11-15T00:59:31;94738.00;;;2.42;100.00
11049;BME280;5577;42.706;23.160;2022-11-15T01:02:15;94726.06;;;2.36;100.00
11049;BME280;5577;42.706;23.160;2022-11-15T01:04:59;94728.31;;;2.43;100.00
11049;BME280;5577;42.706;23.160;2022-11-15T01:07:43;94737.50;;;2.40;100.00
11049;BME280;5577;42.706;23.160;2022-11-15T01:10:27;94737.25;;;2.37;100.00
11049;BME280;5577;42.706;23.160;2022-11-15T01:13:11;94728.88;;;2.40;100.00
11049;BME280;5577;42.706;23.160;2022-11-15T01:15:54;94740.38;;;2.39;100.00
11049;BME280;5577;42.706;23.160;2022-11-15T01:18:39;94741.16;;;2.39;100.00
11049;BME280;5577;42.706;23.160;2022-11-15T01:21:23;94741.94;;;2.40;100.00
11049;BME280;5577;42.706;23.160;2022-11-15T01:24:08;94733.38;;;2.34;100.00
11049;BME280;5577;42.706;23.160;2022-11-15T01:26:55;94736.22;;;2.38;100.00
11049;BME280;5577;42.706;23.160;2022-11-15T01:29:39;94730.22;;;2.37;100.00
11049;BME280;5577;42.706;23.160;2022-11-15T01:32:23;94728.53;;;2.23;100.00
11049;BME280;5577;42.706;23.160;2022-11-15T01:35:07;94713.63;;;2.28;100.00
11049;BME280;5577;42.706;23.160;2022-11-15T01:37:51;94724.94;;;2.19;100.00
11049;BME280;5577;42.706;23.160;2022-11-15T01:40:35;94729.06;;;2.25;100.00
11049;BME280;5577;42.706;23.160;2022-11-15T01:43:25;94729.50;;;2.32;100.00
11049;BME280;5577;42.706;23.160;2022-11-15T01:49:12;94709.38;;;2.32;100.00
11049;BME280;5577;42.706;23.160;2022-11-15T01:51:57;94720.94;;;2.26;100.00
11049;BME280;5577;42.706;23.160;2022-11-15T01:54:42;94723.72;;;2.35;100.00
11049;BME280;5577;42.706;23.160;2022-11-15T01:57:27;94723.44;;;2.36;100.00
11049;BME280;5577;42.706;23.160;2022-11-15T02:00:12;94720.03;;;2.36;100.00
11049;BME280;5577;42.706;23.160;2022-11-15T02:02:57;94730.28;;;2.32;100.00
11049;BME280;5577;42.706;23.160;2022-11-15T02:05:41;94720.88;;;2.31;100.00
11049;BME280;5577;42.706;23.160;2022-11-15T02:08:27;94717.97;;;2.33;100.00
11049;BME280;5577;42.706;23.160;2022-11-15T02:11:11;94717.78;;;2.29;100.00
11049;BME280;5577;42.706;23.160;2022-11-15T02:13:56;94706.81;;;2.27;100.00
11049;BME280;5577;42.706;23.160;2022-11-15T02:32:15;94697.06;;;2.14;100.00
11049;BME280;5577;42.706;23.160;2022-11-15T02:35:18;94695.72;;;2.17;100.00
11049;BME280;5577;42.706;23.160;2022-11-15T02:41:08;94697.91;;;2.10;100.00
11049;BME280;5577;42.706;23.160;2022-11-15T02:46:54;94705.72;;;2.10;100.00
11049;BME280;5577;42.706;23.160;2022-11-15T02:49:59;94702.28;;;2.14;100.00
11049;BME280;5577;42.706;23.160;2022-11-15T02:52:46;94702.59;;;2.08;100.00
11049;BME280;5577;42.706;23.160;2022-11-15T02:55:36;94705.50;;;2.06;100.00
11049;BME280;5577;42.706;23.160;2022-11-15T03:07:16;94703.78;;;1.97;100.00
11049;BME280;5577;42.706;23.160;2022-11-15T03:10:25;94701.69;;;1.99;100.00
11049;BME280;5577;42.706;23.160;2022-11-15T03:13:19;94699.13;;;1.94;100.00
11049;BME280;5577;42.706;23.160;2022-11-15T03:16:24;94699.63;;;1.96;100.00
11049;BME280;5577;42.706;23.160;2022-11-15T03:19:19;94700.38;;;1.96;100.00
11049;BME280;5577;42.706;23.160;2022-11-15T03:22:07;94703.78;;;1.97;100.00
11049;BME280;5577;42.706;23.160;2022-11-15T03:24:56;94698.56;;;1.97;100.00
11049;BME280;5577;42.706;23.160;2022-11-15T03:27:44;94694.84;;;2.03;100.00
11049;BME280;5577;42.706;23.160;2022-11-15T03:30:32;94688.72;;;2.12;100.00
11049;BME280;5577;42.706;23.160;2022-11-15T03:33:21;94688.66;;;2.17;100.00
11049;BME280;5577;42.706;23.160;2022-11-15T03:36:06;94687.09;;;2.16;100.00
11049;BME280;5577;42.706;23.160;2022-11-15T03:38:53;94678.19;;;2.17;100.00
11049;BME280;5577;42.706;23.160;2022-11-15T03:44:54;94673.13;;;2.26;100.00
11049;BME280;5577;42.706;23.160;2022-11-15T03:47:47;94687.78;;;2.27;100.00
11049;BME280;5577;42.706;23.160;2022-11-15T03:50:33;94672.81;;;2.32;100.00
11049;BME280;5577;42.706;23.160;2022-11-15T03:53:18;94655.63;;;2.26;100.00
11049;BME280;5577;42.706;23.160;2022-11-15T03:56:02;94665.13;;;2.41;100.00
11049;BME280;5577;42.706;23.160;2022-11-15T03:58:46;94662.16;;;2.47;100.00
11049;BME280;5577;42.706;23.160;2022-11-15T04:01:30;94665.47;;;2.53;100.00
11049;BME280;5577;42.706;23.160;2022-11-15T04:04:14;94676.06;;;2.61;100.00
11049;BME280;5577;42.706;23.160;2022-11-15T04:06:58;94661.09;;;2.67;100.00
11049;BME280;5577;42.706;23.160;2022-11-15T04:09:41;94636.72;;;2.53;100.00
11049;BME280;5577;42.706;23.160;2022-11-15T04:12:45;94657.78;;;2.80;100.00
11049;BME280;5577;42.706;23.160;2022-11-15T04:15:31;94657.97;;;2.83;100.00
11049;BME280;5577;42.706;23.160;2022-11-15T04:18:15;94659.44;;;2.89;100.00
11049;BME280;5577;42.706;23.160;2022-11-15T04:20:59;94664.53;;;2.99;100.00
11049;BME280;5577;42.706;23.160;2022-11-15T04:24:02;94661.81;;;3.04;100.00
11049;BME280;5577;42.706;23.160;2022-11-15T04:26:49;94658.75;;;3.16;100.00
11049;BME280;5577;42.706;23.160;2022-11-15T04:29:33;94656.16;;;3.16;100.00
11049;BME280;5577;42.706;23.160;2022-11-15T04:32:20;94656.00;;;3.26;100.00
11049;BME280;5577;42.706;23.160;2022-11-15T04:35:04;94655.59;;;3.33;100.00
11049;BME280;5577;42.706;23.160;2022-11-15T04:37:48;94651.03;;;3.25;100.00
11049;BME280;5577;42.706;23.160;2022-11-15T04:40:33;94661.22;;;3.26;100.00
11049;BME280;5577;42.706;23.160;2022-11-15T04:43:17;94661.34;;;3.35;100.00
11049;BME280;5577;42.706;23.160;2022-11-15T04:46:01;94654.94;;;3.41;100.00
11049;BME280;5577;42.706;23.160;2022-11-15T04:48:45;94657.09;;;3.39;100.00
11049;BME280;5577;42.706;23.160;2022-11-15T04:51:29;94635.81;;;3.27;100.00
11049;BME280;5577;42.706;23.160;2022-11-15T04:54:12;94665.16;;;3.56;100.00
11049;BME280;5577;42.706;23.160;2022-11-15T04:56:56;94667.09;;;3.64;100.00
11049;BME280;5577;42.706;23.160;2022-11-15T04:59:40;94662.44;;;3.61;100.00
11049;BME280;5577;42.706;23.160;2022-11-15T05:02:24;94651.91;;;3.66;100.00
11049;BME280;5577;42.706;23.160;2022-11-15T05:05:28;94653.22;;;3.63;100.00
11049;BME280;5577;42.706;23.160;2022-11-15T05:08:12;94662.09;;;3.67;100.00
11049;BME280;5577;42.706;23.160;2022-11-15T05:10:56;94655.84;;;3.50;100.00
11049;BME280;5577;42.706;23.160;2022-11-15T05:13:40;94651.19;;;3.47;100.00
11049;BME280;5577;42.706;23.160;2022-11-15T05:16:24;94584.63;;;3.07;100.00
11049;BME280;5577;42.706;23.160;2022-11-15T05:19:08;94652.38;;;3.54;100.00
11049;BME280;5577;42.706;23.160;2022-11-15T05:21:52;94643.53;;;3.64;100.00
11049;BME280;5577;42.706;23.160;2022-11-15T05:24:36;94651.28;;;3.69;100.00
11049;BME280;5577;42.706;23.160;2022-11-15T05:27:20;94644.16;;;3.74;100.00
11049;BME280;5577;42.706;23.160;2022-11-15T05:30:04;94643.75;;;3.81;100.00
11049;BME280;5577;42.706;23.160;2022-11-15T05:32:48;94578.47;;;3.44;100.00
11049;BME280;5577;42.706;23.160;2022-11-15T05:35:40;94642.19;;;3.93;100.00
11049;BME280;5577;42.706;23.160;2022-11-15T05:38:25;94652.84;;;3.97;100.00
11049;BME280;5577;42.706;23.160;2022-11-15T05:41:10;94649.38;;;4.01;100.00
11049;BME280;5577;42.706;23.160;2022-11-15T05:43:54;94652.38;;;4.08;100.00
11049;BME280;5577;42.706;23.160;2022-11-15T05:46:40;94659.75;;;4.06;100.00
11049;BME280;5577;42.706;23.160;2022-11-15T05:49:29;94663.13;;;4.07;100.00
11049;BME280;5577;42.706;23.160;2022-11-15T05:52:16;94672.47;;;4.13;100.00
11049;BME280;5577;42.706;23.160;2022-11-15T05:55:02;94669.97;;;4.08;100.00
11049;BME280;5577;42.706;23.160;2022-11-15T05:57:48;94674.88;;;4.09;100.00
11049;BME280;5577;42.706;23.160;2022-11-15T06:00:32;94664.22;;;4.06;100.00
11049;BME280;5577;42.706;23.160;2022-11-15T06:03:16;94670.34;;;4.15;100.00
11049;BME280;5577;42.706;23.160;2022-11-15T06:06:00;94679.44;;;4.17;100.00
11049;BME280;5577;42.706;23.160;2022-11-15T06:08:44;94675.75;;;4.18;100.00
11049;BME280;5577;42.706;23.160;2022-11-15T06:11:28;94672.88;;;4.06;100.00
11049;BME280;5577;42.706;23.160;2022-11-15T06:14:12;94668.28;;;3.98;100.00
11049;BME280;5577;42.706;23.160;2022-11-15T06:16:56;94677.63;;;3.91;100.00
11049;BME280;5577;42.706;23.160;2022-11-15T06:19:40;94674.31;;;3.99;100.00
11049;BME280;5577;42.706;23.160;2022-11-15T06:22:24;94648.22;;;3.80;100.00
11049;BME280;5577;42.706;23.160;2022-11-15T06:25:08;94670.81;;;4.03;100.00
11049;BME280;5577;42.706;23.160;2022-11-15T06:27:53;94667.41;;;4.03;100.00
11049;BME280;5577;42.706;23.160;2022-11-15T06:30:37;94669.34;;;4.11;100.00
11049;BME280;5577;42.706;23.160;2022-11-15T06:33:21;94672.75;;;4.11;100.00
11049;BME280;5577;42.706;23.160;2022-11-15T06:36:11;94671.09;;;4.15;100.00
11049;BME280;5577;42.706;23.160;2022-11-15T06:38:57;94677.22;;;4.24;100.00
11049;BME280;5577;42.706;23.160;2022-11-15T06:41:41;94674.00;;;4.27;100.00
11049;BME280;5577;42.706;23.160;2022-11-15T06:44:25;94678.75;;;4.25;100.00
11049;BME280;5577;42.706;23.160;2022-11-15T06:47:09;94668.38;;;4.34;100.00
11049;BME280;5577;42.706;23.160;2022-11-15T06:49:53;94666.22;;;4.49;100.00
11049;BME280;5577;42.706;23.160;2022-11-15T06:52:37;94672.63;;;4.57;100.00
11049;BME280;5577;42.706;23.160;2022-11-15T06:55:21;94654.09;;;4.40;100.00
11049;BME280;5577;42.706;23.160;2022-11-15T06:58:05;94667.88;;;4.32;100.00
11049;BME280;5577;42.706;23.160;2022-11-15T07:00:49;94666.41;;;4.39;100.00
11049;BME280;5577;42.706;23.160;2022-11-15T07:03:38;94657.69;;;4.44;100.00
11049;BME280;5577;42.706;23.160;2022-11-15T07:06:23;94662.13;;;4.43;100.00
11049;BME280;5577;42.706;23.160;2022-11-15T07:09:07;94661.47;;;4.38;100.00
11049;BME280;5577;42.706;23.160;2022-11-15T07:11:51;94657.59;;;4.35;100.00
11049;BME280;5577;42.706;23.160;2022-11-15T07:14:34;94661.78;;;4.23;100.00
11049;BME280;5577;42.706;23.160;2022-11-15T07:17:18;94666.81;;;4.33;100.00
11049;BME280;5577;42.706;23.160;2022-11-15T07:20:02;94661.47;;;4.38;100.00
11049;BME280;5577;42.706;23.160;2022-11-15T07:22:47;94671.25;;;4.46;100.00
11049;BME280;5577;42.706;23.160;2022-11-15T07:25:31;94677.28;;;4.46;100.00
11049;BME280;5577;42.706;23.160;2022-11-15T07:28:15;94671.66;;;4.39;100.00
11049;BME280;5577;42.706;23.160;2022-11-15T07:31:03;94668.34;;;4.47;100.00
11049;BME280;5577;42.706;23.160;2022-11-15T07:33:47;94665.53;;;4.44;100.00
11049;BME280;5577;42.706;23.160;2022-11-15T07:36:31;94662.63;;;4.45;100.00
11049;BME280;5577;42.706;23.160;2022-11-15T07:39:15;94666.78;;;4.46;100.00
11049;BME280;5577;42.706;23.160;2022-11-15T07:41:59;94668.38;;;4.34;100.00
11049;BME280;5577;42.706;23.160;2022-11-15T07:45:02;94678.47;;;4.27;100.00
11049;BME280;5577;42.706;23.160;2022-11-15T07:47:48;94680.41;;;4.21;100.00
11049;BME280;5577;42.706;23.160;2022-11-15T07:50:32;94672.63;;;4.43;100.00
11049;BME280;5577;42.706;23.160;2022-11-15T07:53:16;94669.53;;;4.41;100.00
11049;BME280;5577;42.706;23.160;2022-11-15T07:56:00;94679.34;;;4.36;100.00
11049;BME280;5577;42.706;23.160;2022-11-15T07:58:45;94675.66;;;4.37;100.00
11049;BME280;5577;42.706;23.160;2022-11-15T08:01:29;94670.09;;;4.52;100.00
11049;BME280;5577;42.706;23.160;2022-11-15T08:04:13;94659.03;;;4.77;100.00
11049;BME280;5577;42.706;23.160;2022-11-15T08:06:58;94664.19;;;4.82;100.00
11049;BME280;5577;42.706;23.160;2022-11-15T08:09:42;94661.88;;;5.02;100.00
11049;BME280;5577;42.706;23.160;2022-11-15T08:12:27;94656.34;;;5.04;100.00
11049;BME280;5577;42.706;23.160;2022-11-15T08:15:12;94648.81;;;5.11;100.00
11049;BME280;5577;42.706;23.160;2022-11-15T08:18:02;94648.88;;;5.19;100.00
11049;BME280;5577;42.706;23.160;2022-11-15T08:20:47;94649.88;;;5.32;100.00
11049;BME280;5577;42.706;23.160;2022-11-15T08:23:31;94644.13;;;5.30;100.00
11049;BME280;5577;42.706;23.160;2022-11-15T08:26:15;94633.00;;;5.24;100.00
11049;BME280;5577;42.706;23.160;2022-11-15T08:29:00;94643.78;;;5.23;100.00
11049;BME280;5577;42.706;23.160;2022-11-15T08:31:44;94639.31;;;5.23;100.00
11049;BME280;5577;42.706;23.160;2022-11-15T08:34:28;94642.63;;;5.07;100.00
11049;BME280;5577;42.706;23.160;2022-11-15T08:37:12;94642.97;;;5.14;100.00
11049;BME280;5577;42.706;23.160;2022-11-15T08:39:56;94637.44;;;5.15;100.00
11049;BME280;5577;42.706;23.160;2022-11-15T08:42:40;94629.72;;;5.19;100.00
11049;BME280;5577;42.706;23.160;2022-11-15T08:45:24;94629.53;;;4.93;100.00
11049;BME280;5577;42.706;23.160;2022-11-15T08:48:08;94621.38;;;4.95;100.00
11049;BME280;5577;42.706;23.160;2022-11-15T08:50:55;94596.03;;;4.68;100.00
11049;BME280;5577;42.706;23.160;2022-11-15T08:53:40;94631.63;;;4.83;100.00
11049;BME280;5577;42.706;23.160;2022-11-15T08:56:24;94626.38;;;5.05;100.00
11049;BME280;5577;42.706;23.160;2022-11-15T08:59:08;94595.69;;;5.05;100.00
11049;BME280;5577;42.706;23.160;2022-11-15T09:01:52;94621.84;;;5.49;100.00
11049;BME280;5577;42.706;23.160;2022-11-15T09:04:36;94619.13;;;5.54;100.00
11049;BME280;5577;42.706;23.160;2022-11-15T09:07:20;94619.06;;;5.76;100.00
11049;BME280;5577;42.706;23.160;2022-11-15T09:10:04;94608.34;;;5.95;100.00
11049;BME280;5577;42.706;23.160;2022-11-15T09:12:48;94601.75;;;6.15;100.00
11049;BME280;5577;42.706;23.160;2022-11-15T09:15:32;94586.88;;;6.10;100.00
11049;BME280;5577;42.706;23.160;2022-11-15T09:18:16;94581.84;;;5.83;100.00
11049;BME280;5577;42.706;23.160;2022-11-15T09:21:00;94590.28;;;5.63;100.00
11049;BME280;5577;42.706;23.160;2022-11-15T09:23:46;94586.00;;;5.75;100.00
11049;BME280;5577;42.706;23.160;2022-11-15T09:26:30;94580.38;;;5.99;100.00
11049;BME280;5577;42.706;23.160;2022-11-15T09:29:14;94579.31;;;6.17;100.00
11049;BME280;5577;42.706;23.160;2022-11-15T09:31:58;94577.94;;;6.28;100.00
11049;BME280;5577;42.706;23.160;2022-11-15T09:34:42;94577.47;;;6.26;100.00
11049;BME280;5577;42.706;23.160;2022-11-15T09:37:26;94549.91;;;5.98;100.00
11049;BME280;5577;42.706;23.160;2022-11-15T09:40:12;94560.16;;;6.17;100.00
11049;BME280;5577;42.706;23.160;2022-11-15T09:43:42;94557.06;;;6.23;100.00
11049;BME280;5577;42.706;23.160;2022-11-15T09:49:15;94553.00;;;6.09;100.00
11049;BME280;5577;42.706;23.160;2022-11-15T09:51:59;94566.50;;;6.33;100.00
11049;BME280;5577;42.706;23.160;2022-11-15T09:54:48;94544.84;;;6.36;100.00
11049;BME280;5577;42.706;23.160;2022-11-15T09:57:39;94537.59;;;6.41;100.00
11049;BME280;5577;42.706;23.160;2022-11-15T10:00:40;94530.13;;;6.69;100.00
11049;BME280;5577;42.706;23.160;2022-11-15T10:03:33;94529.38;;;6.85;100.00
11049;BME280;5577;42.706;23.160;2022-11-15T10:06:26;94485.41;;;6.77;100.00
11049;BME280;5577;42.706;23.160;2022-11-15T10:09:24;94511.44;;;7.25;100.00
11049;BME280;5577;42.706;23.160;2022-11-15T10:12:12;94506.34;;;7.20;100.00
11049;BME280;5577;42.706;23.160;2022-11-15T10:15:05;94510.06;;;7.27;100.00
11049;BME280;5577;42.706;23.160;2022-11-15T10:18:00;94503.94;;;7.44;100.00
11049;BME280;5577;42.706;23.160;2022-11-15T10:20:52;94505.53;;;7.28;100.00
11049;BME280;5577;42.706;23.160;2022-11-15T10:23:39;94507.75;;;7.17;100.00
11049;BME280;5577;42.706;23.160;2022-11-15T10:26:23;94504.72;;;6.98;100.00
11049;BME280;5577;42.706;23.160;2022-11-15T10:29:08;94493.75;;;6.96;100.00
11049;BME280;5577;42.706;23.160;2022-11-15T10:31:52;94489.69;;;7.07;100.00
11049;BME280;5577;42.706;23.160;2022-11-15T10:34:37;94483.59;;;7.15;100.00
11049;BME280;5577;42.706;23.160;2022-11-15T10:37:28;94489.44;;;7.29;100.00
11049;BME280;5577;42.706;23.160;2022-11-15T10:40:23;94469.59;;;7.32;100.00
11049;BME280;5577;42.706;23.160;2022-11-15T10:43:18;94470.38;;;7.61;100.00
11049;BME280;5577;42.706;23.160;2022-11-15T10:46:20;94457.31;;;7.94;100.00
11049;BME280;5577;42.706;23.160;2022-11-15T10:52:16;94452.00;;;8.43;100.00
11049;BME280;5577;42.706;23.160;2022-11-15T10:55:05;94450.72;;;8.29;100.00
11049;BME280;5577;42.706;23.160;2022-11-15T10:57:56;94450.25;;;8.27;100.00
11049;BME280;5577;42.706;23.160;2022-11-15T11:00:42;94437.47;;;8.17;100.00
11049;BME280;5577;42.706;23.160;2022-11-15T11:03:34;94436.09;;;8.11;100.00
11049;BME280;5577;42.706;23.160;2022-11-15T11:06:19;94431.00;;;8.47;100.00
11049;BME280;5577;42.706;23.160;2022-11-15T11:09:05;94394.72;;;8.44;100.00
11049;BME280;5577;42.706;23.160;2022-11-15T11:11:51;94422.44;;;8.95;100.00
11049;BME280;5577;42.706;23.160;2022-11-15T11:14:37;94418.91;;;8.91;100.00
11049;BME280;5577;42.706;23.160;2022-11-15T11:20:49;94403.53;;;9.65;100.00
11049;BME280;5577;42.706;23.160;2022-11-15T11:33:05;94373.34;;;10.05;100.00
11049;BME280;5577;42.706;23.160;2022-11-15T11:44:47;94350.34;;;9.54;100.00
11049;BME280;5577;42.706;23.160;2022-11-15T11:47:40;94349.13;;;9.52;100.00
11049;BME280;5577;42.706;23.160;2022-11-15T11:50:27;94344.94;;;9.63;100.00
11049;BME280;5577;42.706;23.160;2022-11-15T11:53:31;94323.81;;;9.63;100.00
11049;BME280;5577;42.706;23.160;2022-11-15T11:56:26;94319.06;;;9.96;100.00
11049;BME280;5577;42.706;23.160;2022-11-15T11:59:58;94321.25;;;10.49;100.00
11049;BME280;5577;42.706;23.160;2022-11-15T12:02:47;94309.69;;;9.98;100.00
11049;BME280;5577;42.706;23.160;2022-11-15T12:05:59;94313.94;;;10.15;100.00
11049;BME280;5577;42.706;23.160;2022-11-15T12:09:19;94309.88;;;10.05;100.00
11049;BME280;5577;42.706;23.160;2022-11-15T12:12:11;94296.28;;;10.34;100.00
11049;BME280;5577;42.706;23.160;2022-11-15T12:17:55;94285.69;;;11.12;100.00
11049;BME280;5577;42.706;23.160;2022-11-15T12:20:48;94282.22;;;11.08;100.00
11049;BME280;5577;42.706;23.160;2022-11-15T12:23:44;94280.34;;;11.08;100.00
11049;BME280;5577;42.706;23.160;2022-11-15T12:26:37;94277.09;;;10.84;100.00
11049;BME280;5577;42.706;23.160;2022-11-15T12:29:30;94282.13;;;11.74;100.00
11049;BME280;5577;42.706;23.160;2022-11-15T12:32:31;94275.34;;;11.76;100.00
11049;BME280;5577;42.706;23.160;2022-11-15T12:35:35;94277.88;;;11.88;100.00
11049;BME280;5577;42.706;23.160;2022-11-15T12:38:52;94274.03;;;11.86;100.00
11049;BME280;5577;42.706;23.160;2022-11-15T12:41:42;94266.06;;;11.86;100.00
11049;BME280;5577;42.706;23.160;2022-11-15T12:47:23;94252.66;;;11.79;100.00
11049;BME280;5577;42.706;23.160;2022-11-15T12:50:16;94253.34;;;11.56;100.00
11049;BME280;5577;42.706;23.160;2022-11-15T12:59:00;94254.63;;;10.93;100.00
11049;BME280;5577;42.706;23.160;2022-11-15T13:04:34;94241.66;;;10.88;100.00
11049;BME280;5577;42.706;23.160;2022-11-15T13:10:32;94239.97;;;10.80;100.00
11049;BME280;5577;42.706;23.160;2022-11-15T13:13:42;94234.53;;;10.58;100.00
11049;BME280;5577;42.706;23.160;2022-11-15T13:16:27;94220.41;;;10.54;100.00
11049;BME280;5577;42.706;23.160;2022-11-15T13:19:11;94219.81;;;10.14;100.00
11049;BME280;5577;42.706;23.160;2022-11-15T13:21:55;94228.56;;;10.02;100.00
11049;BME280;5577;42.706;23.160;2022-11-15T13:25:00;94228.03;;;9.97;100.00
11049;BME280;5577;42.706;23.160;2022-11-15T13:27:49;94220.41;;;9.80;100.00
11049;BME280;5577;42.706;23.160;2022-11-15T13:30:34;94213.84;;;9.46;100.00
11049;BME280;5577;42.706;23.160;2022-11-15T13:33:30;94202.47;;;9.18;100.00
11049;BME280;5577;42.706;23.160;2022-11-15T13:36:28;94212.72;;;9.20;100.00
11049;BME280;5577;42.706;23.160;2022-11-15T13:39:30;94213.47;;;9.20;100.00
11049;BME280;5577;42.706;23.160;2022-11-15T13:42:16;94195.63;;;8.90;100.00
11049;BME280;5577;42.706;23.160;2022-11-15T13:45:03;94218.91;;;9.12;100.00
11049;BME280;5577;42.706;23.160;2022-11-15T13:47:54;94190.00;;;8.91;100.00
11049;BME280;5577;42.706;23.160;2022-11-15T13:50:39;94222.19;;;9.09;100.00
11049;BME280;5577;42.706;23.160;2022-11-15T13:53:24;94221.56;;;8.88;100.00
11049;BME280;5577;42.706;23.160;2022-11-15T13:56:08;94222.47;;;8.67;100.00
11049;BME280;5577;42.706;23.160;2022-11-15T13:58:53;94219.50;;;8.69;100.00
11049;BME280;5577;42.706;23.160;2022-11-15T14:01:41;94218.53;;;8.61;100.00
11049;BME280;5577;42.706;23.160;2022-11-15T14:04:27;94221.03;;;8.58;100.00
11049;BME280;5577;42.706;23.160;2022-11-15T14:07:19;94185.97;;;8.21;100.00
11049;BME280;5577;42.706;23.160;2022-11-15T14:10:32;94220.19;;;8.42;100.00
11049;BME280;5577;42.706;23.160;2022-11-15T14:13:28;94217.00;;;8.36;100.00
11049;BME280;5577;42.706;23.160;2022-11-15T14:16:19;94211.59;;;8.33;100.00
11049;BME280;5577;42.706;23.160;2022-11-15T14:19:05;94216.88;;;8.33;100.00
11049;BME280;5577;42.706;23.160;2022-11-15T14:25:17;94214.41;;;8.16;100.00
11049;BME280;5577;42.706;23.160;2022-11-15T14:28:31;94212.09;;;8.14;100.00
11049;BME280;5577;42.706;23.160;2022-11-15T14:31:16;94216.47;;;8.10;100.00
11049;BME280;5577;42.706;23.160;2022-11-15T14:34:00;94215.72;;;8.10;100.00
11049;BME280;5577;42.706;23.160;2022-11-15T14:36:44;94225.59;;;8.01;100.00
11049;BME280;5577;42.706;23.160;2022-11-15T14:39:28;94223.72;;;8.01;100.00
11049;BME280;5577;42.706;23.160;2022-11-15T14:42:12;94225.81;;;7.96;100.00
11049;BME280;5577;42.706;23.160;2022-11-15T14:44:56;94220.53;;;7.96;100.00
11049;BME280;5577;42.706;23.160;2022-11-15T14:47:41;94217.00;;;7.92;100.00
11049;BME280;5577;42.706;23.160;2022-11-15T14:50:26;94213.94;;;7.90;100.00
11049;BME280;5577;42.706;23.160;2022-11-15T14:53:16;94220.38;;;7.80;100.00
11049;BME280;5577;42.706;23.160;2022-11-15T14:56:00;94223.84;;;7.72;100.00
11049;BME280;5577;42.706;23.160;2022-11-15T14:58:44;94218.88;;;7.59;100.00
11049;BME280;5577;42.706;23.160;2022-11-15T15:01:28;94212.19;;;7.61;100.00
11049;BME280;5577;42.706;23.160;2022-11-15T15:04:12;94201.16;;;7.68;100.00
11049;BME280;5577;42.706;23.160;2022-11-15T15:06:56;94208.72;;;7.69;100.00
11049;BME280;5577;42.706;23.160;2022-11-15T15:09:41;94200.38;;;7.67;100.00
11049;BME280;5577;42.706;23.160;2022-11-15T15:12:24;94205.97;;;7.66;100.00
11049;BME280;5577;42.706;23.160;2022-11-15T15:15:17;94193.44;;;7.63;100.00
11049;BME280;5577;42.706;23.160;2022-11-15T15:18:03;94193.84;;;7.53;100.00
11049;BME280;5577;42.706;23.160;2022-11-15T15:20:56;94187.81;;;7.52;100.00
11049;BME280;5577;42.706;23.160;2022-11-15T15:23:43;94192.63;;;7.50;100.00
11049;BME280;5577;42.706;23.160;2022-11-15T15:26:27;94184.38;;;7.40;100.00
11049;BME280;5577;42.706;23.160;2022-11-15T15:29:11;94180.50;;;7.37;100.00
11049;BME280;5577;42.706;23.160;2022-11-15T15:31:55;94175.84;;;7.22;100.00
11049;BME280;5577;42.706;23.160;2022-11-15T15:34:39;94166.56;;;7.04;100.00
11049;BME280;5577;42.706;23.160;2022-11-15T15:37:25;94170.22;;;7.12;100.00
11049;BME280;5577;42.706;23.160;2022-11-15T15:40:21;94141.53;;;6.78;100.00
11049;BME280;5577;42.706;23.160;2022-11-15T15:43:06;94170.03;;;6.96;100.00
11049;BME280;5577;42.706;23.160;2022-11-15T15:45:52;94180.16;;;7.06;100.00
11049;BME280;5577;42.706;23.160;2022-11-15T15:48:36;94192.66;;;7.09;100.00
11049;BME280;5577;42.706;23.160;2022-11-15T15:51:22;94188.44;;;6.96;100.00
11049;BME280;5577;42.706;23.160;2022-11-15T15:54:06;94189.16;;;6.85;100.00
11049;BME280;5577;42.706;23.160;2022-11-15T15:56:50;94203.13;;;6.77;100.00
11049;BME280;5577;42.706;23.160;2022-11-15T15:59:34;94195.72;;;6.70;100.00
11049;BME280;5577;42.706;23.160;2022-11-15T16:02:17;94201.56;;;6.55;100.00
11049;BME280;5577;42.706;23.160;2022-11-15T16:05:01;94177.09;;;6.34;100.00
11049;BME280;5577;42.706;23.160;2022-11-15T16:07:45;94198.66;;;6.48;100.00
11049;BME280;5577;42.706;23.160;2022-11-15T16:10:32;94181.59;;;6.25;100.00
11049;BME280;5577;42.706;23.160;2022-11-15T16:13:17;94219.78;;;6.31;100.00